createdAt,value
2023-03-16T00:03:38.958Z,84.48
2023-03-16T00:08:39.703Z,84.44
2023-03-16T00:13:42.798Z,84.55
2023-03-16T00:18:45.192Z,84.86
2023-03-16T00:23:45.829Z,85.19
2023-03-16T00:28:46.455Z,85.03
2023-03-16T00:33:48.432Z,85.36
2023-03-16T00:38:50.067Z,85.06
2023-03-16T00:43:51.789Z,85.73
2023-03-16T00:48:54.015Z,85.17
2023-03-16T00:53:54.701Z,85.20
2023-03-16T00:58:57.817Z,85.08
2023-03-16T01:04:00.335Z,85.46
2023-03-16T01:09:01.002Z,85.75
2023-03-16T01:14:01.796Z,85.73
2023-03-16T01:19:03.899Z,85.92
2023-03-16T01:24:05.006Z,85.87
2023-03-16T01:29:05.685Z,86.03
2023-03-16T01:34:08.441Z,86.10
2023-03-16T01:39:09.164Z,86.03
2023-03-16T01:44:16.822Z,85.84
2023-03-16T01:49:23.862Z,85.88
2023-03-16T01:54:29.555Z,85.67
2023-03-16T01:59:34.013Z,86.02
2023-03-16T02:04:44.987Z,85.79
2023-03-16T02:09:52.752Z,85.93
2023-03-16T02:14:53.855Z,86.00
2023-03-16T02:20:07.231Z,86.21
2023-03-16T02:25:10.825Z,85.99
2023-03-16T02:30:15.421Z,85.61
2023-03-16T02:35:32.671Z,85.92
2023-03-16T02:40:36.335Z,85.92
2023-03-16T02:45:46.873Z,85.84
2023-03-16T02:50:54.026Z,86.74
2023-03-16T02:55:55.955Z,86.32
2023-03-16T03:00:58.584Z,85.99
2023-03-16T03:05:59.245Z,86.30
2023-03-16T03:11:00.802Z,86.15
2023-03-16T03:16:02.967Z,85.85
2023-03-16T03:21:03.704Z,86.22
2023-03-16T03:26:05.242Z,86.07
2023-03-16T03:31:08.616Z,86.21
2023-03-16T03:36:09.500Z,85.96
2023-03-16T03:41:11.225Z,85.78
2023-03-16T03:46:14.711Z,85.87
2023-03-16T03:51:15.519Z,85.93
2023-03-16T03:56:19.377Z,86.00
2023-03-16T04:01:21.742Z,85.92
2023-03-16T04:06:22.410Z,85.79
2023-03-16T04:11:23.284Z,85.81
2023-03-16T04:16:27.226Z,86.00
2023-03-16T04:21:30.033Z,85.71
2023-03-16T04:26:30.994Z,85.18
2023-03-16T04:31:33.514Z,85.74
2023-03-16T04:36:34.791Z,85.76
2023-03-16T04:41:36.409Z,85.40
2023-03-16T04:46:46.198Z,85.72
2023-03-16T04:51:47.356Z,85.13
2023-03-16T04:56:52.422Z,85.51
2023-03-16T05:02:12.842Z,85.69
2023-03-16T05:07:13.673Z,85.66
2023-03-16T05:12:18.359Z,85.67
2023-03-16T05:17:22.694Z,85.41
2023-03-16T05:22:24.314Z,86.89
2023-03-16T05:27:43.743Z,85.15
2023-03-16T05:32:49.440Z,85.19
2023-03-16T05:37:50.571Z,85.04
2023-03-16T05:42:57.074Z,84.59
2023-03-16T05:47:59.788Z,84.72
2023-03-16T05:53:01.561Z,84.72
2023-03-16T05:58:04.271Z,83.98
2023-03-16T06:03:11.109Z,84.00
2023-03-16T06:08:12.701Z,83.87
2023-03-16T06:13:16.626Z,83.49
2023-03-16T06:18:18.697Z,83.23
2023-03-16T06:23:20.400Z,83.36
2023-03-16T06:28:22.338Z,82.53
2023-03-16T06:33:25.793Z,82.86
2023-03-16T06:38:26.737Z,81.99
2023-03-16T06:43:33.282Z,81.68
2023-03-16T06:48:35.867Z,81.22
2023-03-16T06:53:37.592Z,81.58
2023-03-16T06:58:38.434Z,80.47
2023-03-16T07:03:40.580Z,79.89
2023-03-16T07:08:50.480Z,79.01
2023-03-16T07:13:52.761Z,78.62
2023-03-16T07:18:57.932Z,77.98
2023-03-16T07:23:59.120Z,77.48
2023-03-16T07:29:05.109Z,76.70
2023-03-16T07:34:08.199Z,75.99
2023-03-16T07:39:17.846Z,75.64
2023-03-16T07:44:19.938Z,76.00
2023-03-16T07:49:23.928Z,74.75
2023-03-16T07:54:26.984Z,73.97
2023-03-16T07:59:27.790Z,72.77
2023-03-16T08:04:30.108Z,71.83
2023-03-16T08:09:55.666Z,71.14
2023-03-16T08:15:05.947Z,70.71
2023-03-16T08:20:10.651Z,70.22
2023-03-16T08:25:11.763Z,69.63
2023-03-16T08:30:19.082Z,68.39
2023-03-16T08:35:29.717Z,67.68
2023-03-16T08:40:31.166Z,67.15
2023-03-16T08:45:33.817Z,66.00
2023-03-16T08:50:35.870Z,65.59
2023-03-16T08:55:36.897Z,64.84
2023-03-16T09:00:38.287Z,64.63
2023-03-16T09:05:40.460Z,63.28
2023-03-16T09:10:41.671Z,60.54
2023-03-16T09:15:43.005Z,59.96
2023-03-16T09:20:47.754Z,59.41
2023-03-16T09:25:48.409Z,57.64
2023-03-16T09:30:50.046Z,57.27
2023-03-16T09:35:52.359Z,57.57
2023-03-16T09:41:00.804Z,56.57
2023-03-16T09:46:11.308Z,55.31
2023-03-16T09:51:24.624Z,55.04
2023-03-16T09:56:34.666Z,54.60
2023-03-16T10:01:48.311Z,53.52
2023-03-16T10:07:02.591Z,53.72
2023-03-16T10:12:08.734Z,50.13
2023-03-16T10:17:16.891Z,51.06
2023-03-16T10:22:22.566Z,49.80
2023-03-16T10:27:29.550Z,50.28
2023-03-16T10:32:36.703Z,49.18
2023-03-16T10:37:40.615Z,48.65
2023-03-16T10:42:41.614Z,48.86
2023-03-16T10:47:42.814Z,47.56
2023-03-16T10:52:48.108Z,45.85
2023-03-16T10:57:51.664Z,46.10
2023-03-16T11:02:55.289Z,46.62
2023-03-16T11:08:02.085Z,45.00
2023-03-16T11:13:04.582Z,44.61
2023-03-16T11:18:05.513Z,43.22
2023-03-16T11:23:16.461Z,41.82
2023-03-16T11:28:26.052Z,40.86
2023-03-16T11:33:31.042Z,40.35
2023-03-16T11:38:37.642Z,40.34
2023-03-16T11:43:50.164Z,40.48
2023-03-16T11:49:29.140Z,39.59
2023-03-16T11:54:48.677Z,40.14
2023-03-16T12:00:04.401Z,37.87
2023-03-16T12:05:34.601Z,39.23
2023-03-16T12:10:44.698Z,37.93
2023-03-16T12:15:48.435Z,38.88
2023-03-16T12:20:55.137Z,38.89
2023-03-16T12:26:00.876Z,38.21
2023-03-16T12:31:09.999Z,37.66
2023-03-16T12:36:41.749Z,37.83
2023-03-16T12:42:00.598Z,37.02
2023-03-16T12:47:08.541Z,36.49
2023-03-16T12:52:12.488Z,37.54
2023-03-16T12:57:18.556Z,36.03
2023-03-16T13:02:22.236Z,35.04
2023-03-16T13:07:26.271Z,34.59
2023-03-16T13:12:31.446Z,35.27
2023-03-16T13:17:33.468Z,35.12
2023-03-16T13:22:45.729Z,34.34
2023-03-16T13:27:50.827Z,34.49
2023-03-16T13:32:55.182Z,34.14
2023-03-16T13:37:56.437Z,34.94
2023-03-16T13:43:00.794Z,35.60
2023-03-16T13:48:02.120Z,36.30
2023-03-16T13:53:05.711Z,35.98
2023-03-16T13:58:22.493Z,36.96
2023-03-16T14:03:24.765Z,35.83
2023-03-16T14:08:26.296Z,35.71
2023-03-16T14:13:36.280Z,36.95
2023-03-16T14:18:40.956Z,37.27
2023-03-16T14:23:45.516Z,37.05
2023-03-16T14:28:58.418Z,37.34
2023-03-16T14:34:01.877Z,38.07
2023-03-16T14:39:12.042Z,38.27
2023-03-16T14:44:22.821Z,38.27
2023-03-16T14:49:27.968Z,38.61
2023-03-16T14:54:29.935Z,38.44
2023-03-16T14:59:32.263Z,38.60
2023-03-16T15:04:35.663Z,38.13
2023-03-16T15:09:43.418Z,38.88
2023-03-16T15:15:03.408Z,39.19
2023-03-16T15:20:05.302Z,38.81
2023-03-16T15:25:21.347Z,38.63
2023-03-16T15:30:25.728Z,38.93
2023-03-16T15:35:26.475Z,37.42
2023-03-16T15:40:29.785Z,37.87
2023-03-16T15:45:32.050Z,38.32
2023-03-16T15:50:32.943Z,40.20
2023-03-16T15:55:37.669Z,40.22
2023-03-16T16:00:41.030Z,39.62
2023-03-16T16:05:42.024Z,40.66
2023-03-16T16:10:44.661Z,40.09
2023-03-16T16:15:47.977Z,40.39
2023-03-16T16:20:49.311Z,41.10
2023-03-16T16:25:51.334Z,41.69
2023-03-16T16:30:53.590Z,42.40
2023-03-16T16:35:55.666Z,43.34
2023-03-16T16:40:58.732Z,44.51
2023-03-16T16:46:01.806Z,53.50
2023-03-16T16:51:02.627Z,46.25
2023-03-16T16:56:03.755Z,46.67
2023-03-16T17:01:06.382Z,46.69
2023-03-16T17:06:07.625Z,48.32
2023-03-16T17:11:14.113Z,47.70
2023-03-16T17:16:18.283Z,47.53
2023-03-16T17:21:21.348Z,48.95
2023-03-16T17:26:24.458Z,50.07
2023-03-16T17:31:30.978Z,50.23
2023-03-16T17:36:31.990Z,50.98
2023-03-16T17:41:33.358Z,50.45
2023-03-16T17:46:36.384Z,50.64
2023-03-16T17:51:40.284Z,51.05
2023-03-16T17:56:41.813Z,51.18
2023-03-16T18:01:45.811Z,52.15
2023-03-16T18:06:48.161Z,52.39
2023-03-16T18:11:50.953Z,52.14
2023-03-16T18:16:54.610Z,51.76
2023-03-16T18:21:55.377Z,51.61
2023-03-16T18:26:56.539Z,51.30
2023-03-16T18:31:59.251Z,51.14
2023-03-16T18:37:06.057Z,51.13
2023-03-16T18:42:07.647Z,50.49
2023-03-16T18:47:18.473Z,50.71
2023-03-16T18:52:21.100Z,51.52
2023-03-16T18:57:25.132Z,51.72
2023-03-16T19:02:37.208Z,50.74
2023-03-16T19:07:41.012Z,51.42
2023-03-16T19:12:41.749Z,51.36
2023-03-16T19:17:43.823Z,51.44
2023-03-16T19:22:46.028Z,51.54
2023-03-16T19:27:47.214Z,52.22
2023-03-16T19:32:49.283Z,51.42
2023-03-16T19:37:50.318Z,52.60
2023-03-16T19:42:51.926Z,52.73
2023-03-16T19:47:53.972Z,52.80
2023-03-16T19:52:55.625Z,53.26
2023-03-16T19:58:01.462Z,52.90
2023-03-16T20:03:03.530Z,53.81
2023-03-16T20:08:22.172Z,53.81
2023-03-16T20:13:24.507Z,54.08
2023-03-16T20:18:28.770Z,53.92
2023-03-16T20:23:30.975Z,54.39
2023-03-16T20:28:35.528Z,54.27
2023-03-16T20:33:42.298Z,54.07
2023-03-16T20:38:44.241Z,54.42
2023-03-16T20:43:45.452Z,54.32
2023-03-16T20:48:48.096Z,54.03
2023-03-16T20:53:49.979Z,54.65
2023-03-16T20:58:54.716Z,54.99
2023-03-16T21:03:56.886Z,54.86
2023-03-16T21:08:59.536Z,53.94
2023-03-16T21:14:00.533Z,54.41
2023-03-16T21:19:02.585Z,54.10
2023-03-16T21:24:03.605Z,54.89
2023-03-16T21:29:08.313Z,55.07
2023-03-16T21:34:23.794Z,55.06
2023-03-16T21:39:25.354Z,57.00
2023-03-16T21:44:26.188Z,56.56
2023-03-16T21:49:28.414Z,55.61
2023-03-16T21:54:29.157Z,55.25
2023-03-16T21:59:29.833Z,55.39
2023-03-16T22:04:31.898Z,55.58
2023-03-16T22:09:33.159Z,55.02
2023-03-16T22:14:33.975Z,54.64
2023-03-16T22:19:36.122Z,55.02
2023-03-16T22:24:37.209Z,54.92
2023-03-16T22:29:37.950Z,54.94
2023-03-16T22:34:43.496Z,54.86
2023-03-16T22:39:44.825Z,54.68
2023-03-16T22:44:45.481Z,54.11
2023-03-16T22:49:47.481Z,54.86
2023-03-16T22:54:48.926Z,54.72
2023-03-16T22:59:50.637Z,54.90
2023-03-16T23:04:53.009Z,53.99
2023-03-16T23:09:53.807Z,53.11
2023-03-16T23:14:54.554Z,53.21
2023-03-16T23:19:56.586Z,52.50
2023-03-16T23:24:57.275Z,51.77
2023-03-16T23:29:57.931Z,51.63
2023-03-16T23:35:00.408Z,51.33
2023-03-16T23:40:01.349Z,50.84
2023-03-16T23:45:09.012Z,50.78
2023-03-16T23:50:14.657Z,50.72
2023-03-16T23:55:16.155Z,50.16
